sensor_id;sensor_type;location;lat;lon;timestamp;temperature;humidity
20998;DHT22;10657;51.276;6.390;2022-12-18T00:02:12;-1.40;99.90
20998;DHT22;10657;51.276;6.390;2022-12-18T00:04:39;-1.40;99.90
20998;DHT22;10657;51.276;6.390;2022-12-18T00:07:06;-1.60;99.90
20998;DHT22;10657;51.276;6.390;2022-12-18T00:09:32;-1.60;99.90
20998;DHT22;10657;51.276;6.390;2022-12-18T00:12:06;-1.80;99.90
20998;DHT22;10657;51.276;6.390;2022-12-18T00:14:41;-2.00;99.90
20998;DHT22;10657;51.276;6.390;2022-12-18T00:17:08;-1.90;99.90
20998;DHT22;10657;51.276;6.390;2022-12-18T00:19:35;-1.40;99.90
20998;DHT22;10657;51.276;6.390;2022-12-18T00:22:01;-1.20;99.90
20998;DHT22;10657;51.276;6.390;2022-12-18T00:24:28;-1.40;99.90
20998;DHT22;10657;51.276;6.390;2022-12-18T00:26:55;-1.50;99.90
20998;DHT22;10657;51.276;6.390;2022-12-18T00:29:22;-1.70;99.90
20998;DHT22;10657;51.276;6.390;2022-12-18T00:31:48;-1.60;99.90
20998;DHT22;10657;51.276;6.390;2022-12-18T00:34:15;-1.60;99.90
20998;DHT22;10657;51.276;6.390;2022-12-18T00:36:42;-1.50;99.90
20998;DHT22;10657;51.276;6.390;2022-12-18T00:39:10;-1.70;99.90
20998;DHT22;10657;51.276;6.390;2022-12-18T00:41:38;-1.80;99.90
20998;DHT22;10657;51.276;6.390;2022-12-18T00:44:23;-2.00;99.90
20998;DHT22;10657;51.276;6.390;2022-12-18T00:46:49;-2.30;99.90
20998;DHT22;10657;51.276;6.390;2022-12-18T00:49:18;-2.30;99.90
20998;DHT22;10657;51.276;6.390;2022-12-18T00:51:46;-2.30;99.90
20998;DHT22;10657;51.276;6.390;2022-12-18T00:54:13;-2.30;99.90
20998;DHT22;10657;51.276;6.390;2022-12-18T00:56:40;-2.10;99.90
20998;DHT22;10657;51.276;6.390;2022-12-18T00:59:14;-1.90;99.90
20998;DHT22;10657;51.276;6.390;2022-12-18T01:01:41;-1.90;99.90
20998;DHT22;10657;51.276;6.390;2022-12-18T01:04:09;-2.00;99.90
20998;DHT22;10657;51.276;6.390;2022-12-18T01:06:35;-2.00;99.90
20998;DHT22;10657;51.276;6.390;2022-12-18T01:09:02;-1.80;99.90
20998;DHT22;10657;51.276;6.390;2022-12-18T01:11:30;-1.90;99.90
20998;DHT22;10657;51.276;6.390;2022-12-18T01:13:56;-1.70;99.90
20998;DHT22;10657;51.276;6.390;2022-12-18T01:16:23;-1.80;99.90
20998;DHT22;10657;51.276;6.390;2022-12-18T01:18:54;-1.80;99.90
20998;DHT22;10657;51.276;6.390;2022-12-18T01:21:21;-1.90;99.90
20998;DHT22;10657;51.276;6.390;2022-12-18T01:23:52;-2.00;99.90
20998;DHT22;10657;51.276;6.390;2022-12-18T01:26:19;-2.20;99.90
20998;DHT22;10657;51.276;6.390;2022-12-18T01:28:46;-2.40;99.90
20998;DHT22;10657;51.276;6.390;2022-12-18T01:31:22;-2.40;99.90
20998;DHT22;10657;51.276;6.390;2022-12-18T01:33:50;-2.20;99.90
20998;DHT22;10657;51.276;6.390;2022-12-18T01:36:20;-2.10;99.90
20998;DHT22;10657;51.276;6.390;2022-12-18T01:38:48;-2.20;99.90
20998;DHT22;10657;51.276;6.390;2022-12-18T01:41:17;-2.10;99.90
20998;DHT22;10657;51.276;6.390;2022-12-18T01:43:50;-2.00;99.90
20998;DHT22;10657;51.276;6.390;2022-12-18T01:46:19;-1.90;99.90
20998;DHT22;10657;51.276;6.390;2022-12-18T01:48:53;-2.00;99.90
20998;DHT22;10657;51.276;6.390;2022-12-18T01:51:23;-2.10;99.90
20998;DHT22;10657;51.276;6.390;2022-12-18T01:53:50;-2.30;99.90
20998;DHT22;10657;51.276;6.390;2022-12-18T01:56:18;-2.20;99.90
20998;DHT22;10657;51.276;6.390;2022-12-18T01:58:56;-2.10;99.90
20998;DHT22;10657;51.276;6.390;2022-12-18T02:01:25;-2.10;99.90
20998;DHT22;10657;51.276;6.390;2022-12-18T02:03:53;-2.10;99.90
20998;DHT22;10657;51.276;6.390;2022-12-18T02:06:36;-2.20;99.90
20998;DHT22;10657;51.276;6.390;2022-12-18T02:09:56;-2.20;99.90
20998;DHT22;10657;51.276;6.390;2022-12-18T02:12:19;-2.00;99.90
20998;DHT22;10657;51.276;6.390;2022-12-18T02:15:13;-2.30;99.90
20998;DHT22;10657;51.276;6.390;2022-12-18T02:17:42;-2.40;99.90
20998;DHT22;10657;51.276;6.390;2022-12-18T02:20:21;-2.00;99.90
20998;DHT22;10657;51.276;6.390;2022-12-18T02:28:21;-2.00;99.90
20998;DHT22;10657;51.276;6.390;2022-12-18T02:30:50;-1.80;99.90
20998;DHT22;10657;51.276;6.390;2022-12-18T02:33:21;-1.50;99.90
20998;DHT22;10657;51.276;6.390;2022-12-18T02:35:48;-1.20;99.90
20998;DHT22;10657;51.276;6.390;2022-12-18T02:38:15;-1.30;99.90
20998;DHT22;10657;51.276;6.390;2022-12-18T02:40:43;-1.70;99.90
20998;DHT22;10657;51.276;6.390;2022-12-18T02:43:13;-2.00;99.90
20998;DHT22;10657;51.276;6.390;2022-12-18T02:45:54;-2.20;99.90
20998;DHT22;10657;51.276;6.390;2022-12-18T02:48:31;-1.70;99.90
20998;DHT22;10657;51.276;6.390;2022-12-18T02:53:56;-1.70;99.90
20998;DHT22;10657;51.276;6.390;2022-12-18T02:56:32;-1.60;99.90
20998;DHT22;10657;51.276;6.390;2022-12-18T02:59:09;-1.70;99.90
20998;DHT22;10657;51.276;6.390;2022-12-18T03:04:33;-1.80;99.90
20998;DHT22;10657;51.276;6.390;2022-12-18T03:07:05;-1.70;99.90
20998;DHT22;10657;51.276;6.390;2022-12-18T03:09:36;-1.90;99.90
20998;DHT22;10657;51.276;6.390;2022-12-18T03:13:16;-1.70;99.90
20998;DHT22;10657;51.276;6.390;2022-12-18T03:15:21;-1.80;99.90
20998;DHT22;10657;51.276;6.390;2022-12-18T03:17:59;-1.80;99.90
20998;DHT22;10657;51.276;6.390;2022-12-18T03:20:30;-2.10;99.90
20998;DHT22;10657;51.276;6.390;2022-12-18T03:23:04;-2.10;99.90
20998;DHT22;10657;51.276;6.390;2022-12-18T03:25:35;-2.00;99.90
20998;DHT22;10657;51.276;6.390;2022-12-18T03:28:04;-2.10;99.90
20998;DHT22;10657;51.276;6.390;2022-12-18T03:30:33;-2.40;99.90
20998;DHT22;10657;51.276;6.390;2022-12-18T03:33:10;-2.50;99.90
20998;DHT22;10657;51.276;6.390;2022-12-18T03:35:40;-2.20;99.90
20998;DHT22;10657;51.276;6.390;2022-12-18T03:38:08;-1.80;99.90
20998;DHT22;10657;51.276;6.390;2022-12-18T03:44:06;-1.70;99.90
20998;DHT22;10657;51.276;6.390;2022-12-18T03:49:12;-2.00;99.90
20998;DHT22;10657;51.276;6.390;2022-12-18T03:51:48;-2.00;99.90
20998;DHT22;10657;51.276;6.390;2022-12-18T03:54:17;-2.10;99.90
20998;DHT22;10657;51.276;6.390;2022-12-18T03:56:51;-2.10;99.90
20998;DHT22;10657;51.276;6.390;2022-12-18T03:59:21;-1.90;99.90
20998;DHT22;10657;51.276;6.390;2022-12-18T04:01:51;-1.80;99.90
20998;DHT22;10657;51.276;6.390;2022-12-18T04:04:19;-1.60;99.90
20998;DHT22;10657;51.276;6.390;2022-12-18T04:06:48;-1.70;99.90
20998;DHT22;10657;51.276;6.390;2022-12-18T04:09:15;-1.70;99.90
20998;DHT22;10657;51.276;6.390;2022-12-18T04:11:42;-1.80;99.90
20998;DHT22;10657;51.276;6.390;2022-12-18T04:14:10;-1.80;99.90
20998;DHT22;10657;51.276;6.390;2022-12-18T04:16:43;-1.90;99.90
20998;DHT22;10657;51.276;6.390;2022-12-18T04:19:10;-1.80;99.90
20998;DHT22;10657;51.276;6.390;2022-12-18T04:21:37;-2.00;99.90
20998;DHT22;10657;51.276;6.390;2022-12-18T04:24:03;-2.10;99.90
20998;DHT22;10657;51.276;6.390;2022-12-18T04:26:30;-2.30;99.90
20998;DHT22;10657;51.276;6.390;2022-12-18T04:28:57;-2.30;99.90
20998;DHT22;10657;51.276;6.390;2022-12-18T04:31:23;-2.10;99.90
20998;DHT22;10657;51.276;6.390;2022-12-18T04:33:50;-2.20;99.90
20998;DHT22;10657;51.276;6.390;2022-12-18T04:36:17;-2.10;99.90
20998;DHT22;10657;51.276;6.390;2022-12-18T04:38:43;-2.00;99.90
20998;DHT22;10657;51.276;6.390;2022-12-18T04:41:13;-2.10;99.90
20998;DHT22;10657;51.276;6.390;2022-12-18T04:43:39;-2.30;99.90
20998;DHT22;10657;51.276;6.390;2022-12-18T04:46:08;-2.50;99.90
20998;DHT22;10657;51.276;6.390;2022-12-18T04:48:35;-2.20;99.90
20998;DHT22;10657;51.276;6.390;2022-12-18T04:51:03;-1.90;99.90
20998;DHT22;10657;51.276;6.390;2022-12-18T04:53:30;-2.20;99.90
20998;DHT22;10657;51.276;6.390;2022-12-18T04:56:08;-1.90;99.90
20998;DHT22;10657;51.276;6.390;2022-12-18T04:58:36;-1.80;99.90
20998;DHT22;10657;51.276;6.390;2022-12-18T05:01:04;-1.80;99.90
20998;DHT22;10657;51.276;6.390;2022-12-18T05:03:31;-2.00;99.90
20998;DHT22;10657;51.276;6.390;2022-12-18T05:05:57;-2.00;99.90
20998;DHT22;10657;51.276;6.390;2022-12-18T05:08:24;-2.10;99.90
20998;DHT22;10657;51.276;6.390;2022-12-18T05:11:01;-2.00;99.90
20998;DHT22;10657;51.276;6.390;2022-12-18T05:13:29;-1.80;99.90
20998;DHT22;10657;51.276;6.390;2022-12-18T05:15:56;-1.80;99.90
20998;DHT22;10657;51.276;6.390;2022-12-18T05:18:24;-1.80;99.90
20998;DHT22;10657;51.276;6.390;2022-12-18T05:20:51;-1.50;99.90
20998;DHT22;10657;51.276;6.390;2022-12-18T05:23:19;-1.50;99.90
20998;DHT22;10657;51.276;6.390;2022-12-18T05:25:53;-1.70;99.90
20998;DHT22;10657;51.276;6.390;2022-12-18T05:28:21;-2.20;99.90
20998;DHT22;10657;51.276;6.390;2022-12-18T05:30:52;-2.40;99.90
20998;DHT22;10657;51.276;6.390;2022-12-18T05:33:20;-2.30;99.90
20998;DHT22;10657;51.276;6.390;2022-12-18T05:35:54;-2.30;99.90
20998;DHT22;10657;51.276;6.390;2022-12-18T05:38:22;-2.50;99.90
20998;DHT22;10657;51.276;6.390;2022-12-18T05:40:50;-2.40;99.90
20998;DHT22;10657;51.276;6.390;2022-12-18T05:43:17;-2.20;99.90
20998;DHT22;10657;51.276;6.390;2022-12-18T05:45:47;-2.20;99.90
20998;DHT22;10657;51.276;6.390;2022-12-18T05:48:14;-2.30;99.90
20998;DHT22;10657;51.276;6.390;2022-12-18T05:50:43;-2.50;99.90
20998;DHT22;10657;51.276;6.390;2022-12-18T05:53:13;-2.60;99.90
20998;DHT22;10657;51.276;6.390;2022-12-18T05:55:41;-2.40;99.90
20998;DHT22;10657;51.276;6.390;2022-12-18T05:58:09;-2.50;99.90
20998;DHT22;10657;51.276;6.390;2022-12-18T06:00:38;-2.50;99.90
20998;DHT22;10657;51.276;6.390;2022-12-18T06:03:12;-2.50;99.90
20998;DHT22;10657;51.276;6.390;2022-12-18T06:05:41;-2.50;99.90
20998;DHT22;10657;51.276;6.390;2022-12-18T06:08:09;-2.50;99.90
20998;DHT22;10657;51.276;6.390;2022-12-18T06:10:36;-2.30;99.90
20998;DHT22;10657;51.276;6.390;2022-12-18T06:13:03;-2.50;99.90
20998;DHT22;10657;51.276;6.390;2022-12-18T06:15:30;-2.50;99.90
20998;DHT22;10657;51.276;6.390;2022-12-18T06:17:57;-2.40;99.90
20998;DHT22;10657;51.276;6.390;2022-12-18T06:20:23;-2.30;99.90
20998;DHT22;10657;51.276;6.390;2022-12-18T06:22:57;-2.30;99.90
20998;DHT22;10657;51.276;6.390;2022-12-18T06:25:23;-1.90;99.90
20998;DHT22;10657;51.276;6.390;2022-12-18T06:27:50;-2.00;99.90
20998;DHT22;10657;51.276;6.390;2022-12-18T06:30:17;-1.80;99.90
20998;DHT22;10657;51.276;6.390;2022-12-18T06:32:43;-1.70;99.90
20998;DHT22;10657;51.276;6.390;2022-12-18T06:35:14;-2.00;99.90
20998;DHT22;10657;51.276;6.390;2022-12-18T06:37:40;-2.00;99.90
20998;DHT22;10657;51.276;6.390;2022-12-18T06:40:07;-2.40;99.90
20998;DHT22;10657;51.276;6.390;2022-12-18T06:42:34;-2.50;99.90
20998;DHT22;10657;51.276;6.390;2022-12-18T06:45:00;-2.20;99.90
20998;DHT22;10657;51.276;6.390;2022-12-18T06:47:27;-2.00;99.90
20998;DHT22;10657;51.276;6.390;2022-12-18T06:49:54;-2.10;99.90
20998;DHT22;10657;51.276;6.390;2022-12-18T06:52:20;-2.10;99.90
20998;DHT22;10657;51.276;6.390;2022-12-18T06:54:47;-2.20;99.90
20998;DHT22;10657;51.276;6.390;2022-12-18T06:57:14;-2.20;99.90
20998;DHT22;10657;51.276;6.390;2022-12-18T06:59:40;-2.30;99.90
20998;DHT22;10657;51.276;6.390;2022-12-18T07:02:11;-2.30;99.90
20998;DHT22;10657;51.276;6.390;2022-12-18T07:04:39;-2.40;99.90
20998;DHT22;10657;51.276;6.390;2022-12-18T07:07:05;-2.60;99.90
20998;DHT22;10657;51.276;6.390;2022-12-18T07:09:32;-2.40;99.90
20998;DHT22;10657;51.276;6.390;2022-12-18T07:11:58;-2.60;99.90
20998;DHT22;10657;51.276;6.390;2022-12-18T07:14:25;-2.60;99.90
20998;DHT22;10657;51.276;6.390;2022-12-18T07:16:51;-2.60;99.90
20998;DHT22;10657;51.276;6.390;2022-12-18T07:19:18;-2.50;99.90
20998;DHT22;10657;51.276;6.390;2022-12-18T07:21:45;-2.30;99.90
20998;DHT22;10657;51.276;6.390;2022-12-18T07:24:12;-2.40;99.90
20998;DHT22;10657;51.276;6.390;2022-12-18T07:26:38;-2.40;99.90
20998;DHT22;10657;51.276;6.390;2022-12-18T07:29:05;-2.40;99.90
20998;DHT22;10657;51.276;6.390;2022-12-18T07:31:31;-2.20;99.90
20998;DHT22;10657;51.276;6.390;2022-12-18T07:33:58;-2.50;99.90
20998;DHT22;10657;51.276;6.390;2022-12-18T07:36:25;-2.40;99.90
20998;DHT22;10657;51.276;6.390;2022-12-18T07:38:51;-2.30;99.90
20998;DHT22;10657;51.276;6.390;2022-12-18T07:41:19;-1.80;99.90
20998;DHT22;10657;51.276;6.390;2022-12-18T07:43:46;-2.00;99.90
20998;DHT22;10657;51.276;6.390;2022-12-18T07:46:15;-2.00;99.90
20998;DHT22;10657;51.276;6.390;2022-12-18T07:48:42;-2.10;99.90
20998;DHT22;10657;51.276;6.390;2022-12-18T07:51:14;-2.00;99.90
20998;DHT22;10657;51.276;6.390;2022-12-18T07:53:41;-1.90;99.90
20998;DHT22;10657;51.276;6.390;2022-12-18T07:56:10;-2.00;99.90
20998;DHT22;10657;51.276;6.390;2022-12-18T07:58:55;-1.90;99.90
20998;DHT22;10657;51.276;6.390;2022-12-18T08:01:22;-1.90;99.90
20998;DHT22;10657;51.276;6.390;2022-12-18T08:03:49;-1.70;99.90
20998;DHT22;10657;51.276;6.390;2022-12-18T08:06:18;-1.90;99.90
20998;DHT22;10657;51.276;6.390;2022-12-18T08:08:48;-1.70;99.90
20998;DHT22;10657;51.276;6.390;2022-12-18T08:11:15;-1.70;99.90
20998;DHT22;10657;51.276;6.390;2022-12-18T08:13:42;-1.40;99.90
20998;DHT22;10657;51.276;6.390;2022-12-18T08:16:09;-1.10;99.90
20998;DHT22;10657;51.276;6.390;2022-12-18T08:18:37;-1.00;99.90
20998;DHT22;10657;51.276;6.390;2022-12-18T08:21:11;-1.10;99.90
20998;DHT22;10657;51.276;6.390;2022-12-18T08:23:38;-1.20;99.90
20998;DHT22;10657;51.276;6.390;2022-12-18T08:26:10;-1.40;99.90
20998;DHT22;10657;51.276;6.390;2022-12-18T08:28:37;-1.00;99.90
20998;DHT22;10657;51.276;6.390;2022-12-18T08:31:04;-1.50;99.90
20998;DHT22;10657;51.276;6.390;2022-12-18T08:33:32;-1.20;99.90
20998;DHT22;10657;51.276;6.390;2022-12-18T08:35:59;-1.00;99.90
20998;DHT22;10657;51.276;6.390;2022-12-18T08:38:26;-1.00;99.90
20998;DHT22;10657;51.276;6.390;2022-12-18T08:41:06;-0.70;99.90
20998;DHT22;10657;51.276;6.390;2022-12-18T08:43:32;-0.50;99.90
20998;DHT22;10657;51.276;6.390;2022-12-18T08:46:19;-0.40;99.90
20998;DHT22;10657;51.276;6.390;2022-12-18T08:48:46;-0.60;99.90
20998;DHT22;10657;51.276;6.390;2022-12-18T08:51:15;-0.40;99.90
20998;DHT22;10657;51.276;6.390;2022-12-18T08:53:43;-0.20;99.90
20998;DHT22;10657;51.276;6.390;2022-12-18T08:56:11;-0.10;99.90
20998;DHT22;10657;51.276;6.390;2022-12-18T08:58:37;-0.30;99.90
20998;DHT22;10657;51.276;6.390;2022-12-18T09:01:07;-0.20;99.90
20998;DHT22;10657;51.276;6.390;2022-12-18T09:03:33;-0.50;99.90
20998;DHT22;10657;51.276;6.390;2022-12-18T09:06:00;-0.50;99.90
20998;DHT22;10657;51.276;6.390;2022-12-18T09:08:27;-0.50;99.90
20998;DHT22;10657;51.276;6.390;2022-12-18T09:10:54;-0.60;99.90
20998;DHT22;10657;51.276;6.390;2022-12-18T09:13:22;-0.50;99.90
20998;DHT22;10657;51.276;6.390;2022-12-18T09:15:50;-0.60;99.90
20998;DHT22;10657;51.276;6.390;2022-12-18T09:18:19;-0.30;99.90
20998;DHT22;10657;51.276;6.390;2022-12-18T09:20:46;-0.10;99.90
20998;DHT22;10657;51.276;6.390;2022-12-18T09:23:13;0.00;99.90
20998;DHT22;10657;51.276;6.390;2022-12-18T09:25:40;0.30;99.90
20998;DHT22;10657;51.276;6.390;2022-12-18T09:28:13;0.00;99.90
20998;DHT22;10657;51.276;6.390;2022-12-18T09:30:42;-0.10;99.90
20998;DHT22;10657;51.276;6.390;2022-12-18T09:33:09;-0.20;99.90
20998;DHT22;10657;51.276;6.390;2022-12-18T09:35:37;0.50;99.90
20998;DHT22;10657;51.276;6.390;2022-12-18T09:38:05;-0.20;99.90
20998;DHT22;10657;51.276;6.390;2022-12-18T09:40:52;0.10;99.90
20998;DHT22;10657;51.276;6.390;2022-12-18T09:43:36;0.80;99.90
20998;DHT22;10657;51.276;6.390;2022-12-18T09:46:07;0.30;99.90
20998;DHT22;10657;51.276;6.390;2022-12-18T09:48:44;0.50;99.90
20998;DHT22;10657;51.276;6.390;2022-12-18T09:51:18;0.50;99.90
20998;DHT22;10657;51.276;6.390;2022-12-18T09:53:52;0.30;99.90
20998;DHT22;10657;51.276;6.390;2022-12-18T09:56:21;0.30;99.90
20998;DHT22;10657;51.276;6.390;2022-12-18T09:58:52;0.50;99.90
20998;DHT22;10657;51.276;6.390;2022-12-18T10:01:24;0.40;99.90
20998;DHT22;10657;51.276;6.390;2022-12-18T10:03:59;0.50;99.90
20998;DHT22;10657;51.276;6.390;2022-12-18T10:06:37;0.80;99.90
20998;DHT22;10657;51.276;6.390;2022-12-18T10:17:09;0.30;99.90
20998;DHT22;10657;51.276;6.390;2022-12-18T10:19:51;0.30;99.90
20998;DHT22;10657;51.276;6.390;2022-12-18T10:22:30;0.50;99.90
20998;DHT22;10657;51.276;6.390;2022-12-18T10:25:10;0.70;99.90
20998;DHT22;10657;51.276;6.390;2022-12-18T10:27:40;0.70;99.90
20998;DHT22;10657;51.276;6.390;2022-12-18T10:30:19;0.60;99.90
20998;DHT22;10657;51.276;6.390;2022-12-18T10:32:46;0.40;99.90
20998;DHT22;10657;51.276;6.390;2022-12-18T10:35:21;0.50;99.90
20998;DHT22;10657;51.276;6.390;2022-12-18T10:38:01;0.80;99.90
20998;DHT22;10657;51.276;6.390;2022-12-18T10:40:28;0.50;99.90
20998;DHT22;10657;51.276;6.390;2022-12-18T10:43:12;0.30;99.90
20998;DHT22;10657;51.276;6.390;2022-12-18T10:45:40;0.50;99.90
20998;DHT22;10657;51.276;6.390;2022-12-18T10:48:21;0.70;99.90
20998;DHT22;10657;51.276;6.390;2022-12-18T10:50:50;0.90;99.90
20998;DHT22;10657;51.276;6.390;2022-12-18T10:53:40;0.80;99.90
20998;DHT22;10657;51.276;6.390;2022-12-18T10:56:08;0.80;99.90
20998;DHT22;10657;51.276;6.390;2022-12-18T10:58:37;0.70;99.90
20998;DHT22;10657;51.276;6.390;2022-12-18T11:01:10;0.80;99.90
20998;DHT22;10657;51.276;6.390;2022-12-18T11:04:01;1.10;99.90
20998;DHT22;10657;51.276;6.390;2022-12-18T11:06:29;1.10;99.90
20998;DHT22;10657;51.276;6.390;2022-12-18T11:09:20;1.00;99.90
20998;DHT22;10657;51.276;6.390;2022-12-18T11:11:49;1.10;99.90
20998;DHT22;10657;51.276;6.390;2022-12-18T11:17:29;1.20;99.90
20998;DHT22;10657;51.276;6.390;2022-12-18T11:19:58;1.20;99.90
20998;DHT22;10657;51.276;6.390;2022-12-18T11:22:31;1.10;99.90
20998;DHT22;10657;51.276;6.390;2022-12-18T11:25:00;1.10;99.90
20998;DHT22;10657;51.276;6.390;2022-12-18T11:28:00;1.20;99.90
20998;DHT22;10657;51.276;6.390;2022-12-18T11:30:36;1.20;99.90
20998;DHT22;10657;51.276;6.390;2022-12-18T11:33:11;1.40;99.90
20998;DHT22;10657;51.276;6.390;2022-12-18T11:35:53;1.40;99.90
20998;DHT22;10657;51.276;6.390;2022-12-18T11:38:27;1.40;99.90
20998;DHT22;10657;51.276;6.390;2022-12-18T11:41:23;1.40;99.90
20998;DHT22;10657;51.276;6.390;2022-12-18T11:44:16;1.60;99.90
20998;DHT22;10657;51.276;6.390;2022-12-18T11:46:51;1.20;99.90
20998;DHT22;10657;51.276;6.390;2022-12-18T11:49:26;1.50;99.90
20998;DHT22;10657;51.276;6.390;2022-12-18T11:52:11;1.40;99.90
20998;DHT22;10657;51.276;6.390;2022-12-18T11:54:40;1.50;99.90
20998;DHT22;10657;51.276;6.390;2022-12-18T12:26:14;1.40;99.90
20998;DHT22;10657;51.276;6.390;2022-12-18T12:34:19;0.70;99.90
20998;DHT22;10657;51.276;6.390;2022-12-18T12:39:25;1.20;99.90
20998;DHT22;10657;51.276;6.390;2022-12-18T12:41:53;1.30;99.90
20998;DHT22;10657;51.276;6.390;2022-12-18T12:44:44;1.30;99.90
20998;DHT22;10657;51.276;6.390;2022-12-18T12:47:35;1.00;99.90
20998;DHT22;10657;51.276;6.390;2022-12-18T12:50:15;1.30;99.90
20998;DHT22;10657;51.276;6.390;2022-12-18T12:52:46;1.40;99.90
20998;DHT22;10657;51.276;6.390;2022-12-18T12:55:20;1.30;99.90
20998;DHT22;10657;51.276;6.390;2022-12-18T13:00:43;1.10;99.90
20998;DHT22;10657;51.276;6.390;2022-12-18T13:09:00;1.60;99.90
20998;DHT22;10657;51.276;6.390;2022-12-18T13:11:35;1.70;99.90
20998;DHT22;10657;51.276;6.390;2022-12-18T13:14:39;2.00;99.90
20998;DHT22;10657;51.276;6.390;2022-12-18T13:22:28;1.90;99.90
20998;DHT22;10657;51.276;6.390;2022-12-18T13:24:56;1.90;99.90
20998;DHT22;10657;51.276;6.390;2022-12-18T13:28:00;2.10;99.90
20998;DHT22;10657;51.276;6.390;2022-12-18T13:40:53;2.20;99.90
20998;DHT22;10657;51.276;6.390;2022-12-18T13:48:28;1.60;99.90
20998;DHT22;10657;51.276;6.390;2022-12-18T13:51:03;1.50;99.90
20998;DHT22;10657;51.276;6.390;2022-12-18T13:53:34;1.60;99.90
20998;DHT22;10657;51.276;6.390;2022-12-18T13:56:03;1.40;99.90
20998;DHT22;10657;51.276;6.390;2022-12-18T13:58:30;1.20;99.90
20998;DHT22;10657;51.276;6.390;2022-12-18T14:00:57;1.30;99.90
20998;DHT22;10657;51.276;6.390;2022-12-18T14:03:28;1.40;99.90
20998;DHT22;10657;51.276;6.390;2022-12-18T14:06:06;1.50;99.90
20998;DHT22;10657;51.276;6.390;2022-12-18T14:08:38;1.70;99.90
20998;DHT22;10657;51.276;6.390;2022-12-18T14:11:06;1.70;99.90
20998;DHT22;10657;51.276;6.390;2022-12-18T14:13:38;1.70;99.90
20998;DHT22;10657;51.276;6.390;2022-12-18T14:16:11;1.50;99.90
20998;DHT22;10657;51.276;6.390;2022-12-18T14:18:48;1.90;99.90
20998;DHT22;10657;51.276;6.390;2022-12-18T14:21:23;1.70;99.90
20998;DHT22;10657;51.276;6.390;2022-12-18T14:24:11;1.30;99.90
20998;DHT22;10657;51.276;6.390;2022-12-18T14:26:39;1.40;99.90
20998;DHT22;10657;51.276;6.390;2022-12-18T14:29:34;1.30;99.90
20998;DHT22;10657;51.276;6.390;2022-12-18T14:32:10;1.50;99.90
20998;DHT22;10657;51.276;6.390;2022-12-18T14:34:51;1.50;99.90
20998;DHT22;10657;51.276;6.390;2022-12-18T14:37:23;1.70;99.90
20998;DHT22;10657;51.276;6.390;2022-12-18T14:39:55;1.50;99.90
20998;DHT22;10657;51.276;6.390;2022-12-18T14:42:24;1.60;99.90
20998;DHT22;10657;51.276;6.390;2022-12-18T14:48:42;1.60;99.90
20998;DHT22;10657;51.276;6.390;2022-12-18T14:51:26;1.60;99.90
20998;DHT22;10657;51.276;6.390;2022-12-18T14:54:04;1.60;99.90
20998;DHT22;10657;51.276;6.390;2022-12-18T14:56:36;1.40;99.90
20998;DHT22;10657;51.276;6.390;2022-12-18T14:59:05;1.40;99.90
20998;DHT22;10657;51.276;6.390;2022-12-18T15:01:35;1.20;99.90
20998;DHT22;10657;51.276;6.390;2022-12-18T15:04:05;1.50;99.90
20998;DHT22;10657;51.276;6.390;2022-12-18T15:06:46;1.60;99.90
20998;DHT22;10657;51.276;6.390;2022-12-18T15:09:24;1.50;99.90
20998;DHT22;10657;51.276;6.390;2022-12-18T15:11:57;1.50;99.90
20998;DHT22;10657;51.276;6.390;2022-12-18T15:17:14;1.30;99.90
20998;DHT22;10657;51.276;6.390;2022-12-18T15:19:42;1.40;99.90
20998;DHT22;10657;51.276;6.390;2022-12-18T15:22:27;1.40;99.90
20998;DHT22;10657;51.276;6.390;2022-12-18T15:24:56;1.30;99.90
20998;DHT22;10657;51.276;6.390;2022-12-18T15:27:34;1.20;99.90
20998;DHT22;10657;51.276;6.390;2022-12-18T15:32:38;1.10;99.90
20998;DHT22;10657;51.276;6.390;2022-12-18T15:37:37;1.00;99.90
20998;DHT22;10657;51.276;6.390;2022-12-18T15:40:06;0.80;99.90
20998;DHT22;10657;51.276;6.390;2022-12-18T15:42:32;1.00;99.90
20998;DHT22;10657;51.276;6.390;2022-12-18T15:45:18;1.20;99.90
20998;DHT22;10657;51.276;6.390;2022-12-18T15:47:45;1.20;99.90
20998;DHT22;10657;51.276;6.390;2022-12-18T15:50:12;1.30;99.90
20998;DHT22;10657;51.276;6.390;2022-12-18T15:52:43;1.40;99.90
20998;DHT22;10657;51.276;6.390;2022-12-18T15:55:15;1.40;99.90
20998;DHT22;10657;51.276;6.390;2022-12-18T15:58:02;1.50;99.90
20998;DHT22;10657;51.276;6.390;2022-12-18T16:00:28;1.20;99.90
20998;DHT22;10657;51.276;6.390;2022-12-18T16:02:55;1.10;99.90
20998;DHT22;10657;51.276;6.390;2022-12-18T16:05:23;1.30;99.90
20998;DHT22;10657;51.276;6.390;2022-12-18T16:07:49;1.40;99.90
20998;DHT22;10657;51.276;6.390;2022-12-18T16:10:17;1.30;99.90
20998;DHT22;10657;51.276;6.390;2022-12-18T16:12:44;1.20;99.90
20998;DHT22;10657;51.276;6.390;2022-12-18T16:15:13;1.30;99.90
20998;DHT22;10657;51.276;6.390;2022-12-18T16:17:46;1.10;99.90
20998;DHT22;10657;51.276;6.390;2022-12-18T16:20:16;1.40;99.90
20998;DHT22;10657;51.276;6.390;2022-12-18T16:22:45;1.50;99.90
20998;DHT22;10657;51.276;6.390;2022-12-18T16:25:24;1.50;99.90
20998;DHT22;10657;51.276;6.390;2022-12-18T16:27:52;1.50;99.90
20998;DHT22;10657;51.276;6.390;2022-12-18T16:30:23;1.10;99.90
20998;DHT22;10657;51.276;6.390;2022-12-18T16:32:51;1.20;99.90
20998;DHT22;10657;51.276;6.390;2022-12-18T16:35:18;1.20;99.90
20998;DHT22;10657;51.276;6.390;2022-12-18T16:37:44;1.20;99.90
20998;DHT22;10657;51.276;6.390;2022-12-18T16:40:13;1.30;99.90
20998;DHT22;10657;51.276;6.390;2022-12-18T16:42:42;1.40;99.90
20998;DHT22;10657;51.276;6.390;2022-12-18T16:45:11;1.50;99.90
20998;DHT22;10657;51.276;6.390;2022-12-18T16:47:39;1.20;99.90
20998;DHT22;10657;51.276;6.390;2022-12-18T16:50:06;1.40;99.90
20998;DHT22;10657;51.276;6.390;2022-12-18T16:52:34;1.20;99.90
20998;DHT22;10657;51.276;6.390;2022-12-18T16:55:01;1.20;99.90
20998;DHT22;10657;51.276;6.390;2022-12-18T16:57:27;1.40;99.90
20998;DHT22;10657;51.276;6.390;2022-12-18T16:59:54;1.20;99.90
20998;DHT22;10657;51.276;6.390;2022-12-18T17:02:27;1.10;99.90
20998;DHT22;10657;51.276;6.390;2022-12-18T17:04:56;1.00;99.90
20998;DHT22;10657;51.276;6.390;2022-12-18T17:07:23;1.10;99.90
20998;DHT22;10657;51.276;6.390;2022-12-18T17:09:50;1.40;99.90
20998;DHT22;10657;51.276;6.390;2022-12-18T17:12:19;1.30;99.90
20998;DHT22;10657;51.276;6.390;2022-12-18T17:14:46;1.30;99.90
20998;DHT22;10657;51.276;6.390;2022-12-18T17:17:14;1.30;99.90
20998;DHT22;10657;51.276;6.390;2022-12-18T17:19:50;1.10;99.90
20998;DHT22;10657;51.276;6.390;2022-12-18T17:22:18;1.20;99.90
20998;DHT22;10657;51.276;6.390;2022-12-18T17:24:45;1.10;99.90
20998;DHT22;10657;51.276;6.390;2022-12-18T17:27:12;1.20;99.90
20998;DHT22;10657;51.276;6.390;2022-12-18T17:29:39;1.30;99.90
20998;DHT22;10657;51.276;6.390;2022-12-18T17:32:12;1.30;99.90
20998;DHT22;10657;51.276;6.390;2022-12-18T17:34:39;1.50;99.90
20998;DHT22;10657;51.276;6.390;2022-12-18T17:37:06;1.40;99.90
20998;DHT22;10657;51.276;6.390;2022-12-18T17:39:32;1.30;99.90
20998;DHT22;10657;51.276;6.390;2022-12-18T17:41:59;1.30;99.90
20998;DHT22;10657;51.276;6.390;2022-12-18T17:44:26;1.30;99.90
20998;DHT22;10657;51.276;6.390;2022-12-18T17:46:53;1.30;99.90
20998;DHT22;10657;51.276;6.390;2022-12-18T17:49:20;1.20;99.90